createdAt,value
2019-01-17T00:00:29.894Z,1.51
2019-01-17T00:01:29.851Z,1.54
2019-01-17T00:02:29.789Z,1.44
2019-01-17T00:03:29.781Z,1.37
2019-01-17T00:04:29.773Z,1.40
2019-01-17T00:05:29.758Z,1.44
2019-01-17T00:06:29.750Z,1.43
2019-01-17T00:07:29.725Z,1.43
2019-01-17T00:08:29.726Z,1.50
2019-01-17T00:09:29.713Z,1.33
2019-01-17T00:10:29.701Z,1.15
2019-01-17T00:11:29.689Z,1.14
2019-01-17T00:12:29.675Z,1.10
2019-01-17T00:13:29.661Z,1.04
2019-01-17T00:14:29.657Z,0.98
2019-01-17T00:15:29.643Z,1.06
2019-01-17T00:16:29.633Z,1.03
2019-01-17T00:17:29.637Z,0.85
2019-01-17T00:18:29.612Z,0.83
2019-01-17T00:19:29.612Z,0.79
2019-01-17T00:20:29.592Z,0.79
2019-01-17T00:21:29.575Z,0.75
2019-01-17T00:22:29.556Z,0.75
2019-01-17T00:23:29.555Z,0.75
2019-01-17T00:24:29.541Z,0.61
2019-01-17T00:25:29.553Z,0.64
2019-01-17T00:26:29.568Z,0.67
2019-01-17T00:27:29.498Z,0.62
2019-01-17T00:28:29.498Z,0.70
2019-01-17T00:29:29.482Z,0.67
2019-01-17T00:30:29.474Z,0.58
2019-01-17T00:31:29.462Z,0.60
2019-01-17T00:32:29.450Z,0.65
2019-01-17T00:33:29.441Z,0.65
2019-01-17T00:34:29.421Z,0.62
2019-01-17T00:35:29.423Z,0.67
2019-01-17T00:36:29.411Z,0.70
2019-01-17T00:37:29.396Z,0.68
2019-01-17T00:38:29.371Z,0.76
2019-01-17T00:39:29.369Z,0.79
2019-01-17T00:40:29.359Z,0.78
2019-01-17T00:41:29.349Z,0.75
2019-01-17T00:42:29.334Z,0.65
2019-01-17T00:43:29.324Z,0.60
2019-01-17T00:44:29.314Z,0.51
2019-01-17T00:45:29.299Z,0.51
2019-01-17T00:46:29.287Z,0.51
2019-01-17T00:47:29.282Z,0.38
2019-01-17T00:48:29.289Z,0.28
2019-01-17T00:49:29.254Z,0.28
2019-01-17T00:50:29.244Z,0.36
2019-01-17T00:51:29.276Z,0.38
2019-01-17T00:52:29.250Z,0.28
2019-01-17T00:53:29.205Z,0.24
2019-01-17T00:54:29.188Z,0.36
2019-01-17T00:55:29.184Z,0.33
2019-01-17T00:56:29.174Z,0.38
2019-01-17T00:57:29.159Z,0.38
2019-01-17T00:58:29.147Z,0.51
2019-01-17T00:59:29.129Z,0.53
2019-01-17T01:00:29.122Z,0.65
2019-01-17T01:01:29.111Z,0.72
2019-01-17T01:02:29.093Z,0.85
2019-01-17T01:03:29.086Z,0.86
2019-01-17T01:04:29.075Z,0.94
2019-01-17T01:05:29.067Z,0.94
2019-01-17T01:06:29.076Z,0.96
2019-01-17T01:07:29.038Z,1.03
2019-01-17T01:08:29.027Z,1.07
2019-01-17T01:09:29.014Z,1.18
2019-01-17T01:10:29.005Z,1.19
2019-01-17T01:11:28.991Z,1.26
2019-01-17T01:12:28.973Z,1.25
2019-01-17T01:13:28.968Z,1.22
2019-01-17T01:14:28.952Z,1.34
2019-01-17T01:15:28.937Z,1.37
2019-01-17T01:16:28.932Z,1.43
2019-01-17T01:17:28.910Z,1.46
2019-01-17T01:18:28.901Z,1.42
2019-01-17T01:19:28.896Z,1.54
2019-01-17T01:20:28.884Z,1.55
2019-01-17T01:21:28.874Z,1.64
2019-01-17T01:22:28.876Z,1.65
2019-01-17T01:23:28.849Z,1.75
2019-01-17T01:24:28.838Z,1.80
2019-01-17T01:25:28.826Z,1.91
2019-01-17T01:26:28.816Z,1.94
2019-01-17T01:27:28.815Z,1.94
2019-01-17T01:28:28.791Z,1.99
2019-01-17T01:29:28.822Z,2.13
2019-01-17T01:30:28.764Z,2.19
2019-01-17T01:31:28.754Z,2.16
2019-01-17T01:32:28.744Z,2.23
2019-01-17T01:33:28.735Z,2.19
2019-01-17T01:34:28.721Z,2.13
2019-01-17T01:35:28.710Z,2.22
2019-01-17T01:36:28.698Z,2.20
2019-01-17T01:37:28.687Z,2.17
2019-01-17T01:38:28.676Z,2.22
2019-01-17T01:39:28.652Z,2.28
2019-01-17T01:40:28.651Z,2.23
2019-01-17T01:41:28.641Z,2.33
2019-01-17T01:42:31.207Z,2.45
2019-01-17T01:43:28.620Z,2.48
2019-01-17T01:44:28.604Z,2.64
2019-01-17T01:45:28.594Z,2.59
2019-01-17T01:46:28.585Z,2.63
2019-01-17T01:47:28.566Z,2.67
2019-01-17T01:48:28.563Z,2.70
2019-01-17T01:49:28.547Z,2.69
2019-01-17T01:50:28.532Z,2.73
2019-01-17T01:51:28.531Z,2.70
2019-01-17T01:52:28.515Z,2.76
2019-01-17T01:53:28.508Z,2.71
2019-01-17T01:54:28.494Z,2.70
2019-01-17T01:55:28.485Z,2.82
2019-01-17T01:56:28.474Z,2.87
2019-01-17T01:57:28.457Z,2.88
2019-01-17T01:58:28.449Z,2.81
2019-01-17T01:59:28.437Z,2.74
2019-01-17T02:00:28.419Z,2.82
2019-01-17T02:01:28.417Z,3.00
2019-01-17T02:02:28.404Z,2.95
2019-01-17T02:03:28.394Z,2.98
2019-01-17T02:04:28.383Z,3.15
2019-01-17T02:05:28.380Z,3.25
2019-01-17T02:06:28.375Z,3.16
2019-01-17T02:07:28.354Z,3.13
2019-01-17T02:08:28.339Z,3.09
2019-01-17T02:09:28.328Z,3.09
2019-01-17T02:10:28.316Z,3.10
2019-01-17T02:11:28.305Z,3.12
2019-01-17T02:12:28.320Z,3.00
2019-01-17T02:13:28.284Z,3.02
2019-01-17T02:14:28.273Z,3.10
2019-01-17T02:15:28.264Z,3.00
2019-01-17T02:16:28.251Z,2.98
2019-01-17T02:17:28.239Z,3.07
2019-01-17T02:18:28.231Z,3.07
2019-01-17T02:19:28.219Z,3.07
2019-01-17T02:20:28.202Z,3.07
2019-01-17T02:21:28.200Z,3.25
2019-01-17T02:22:28.188Z,3.13
2019-01-17T02:23:28.176Z,3.21
2019-01-17T02:24:28.662Z,3.33
2019-01-17T02:25:28.153Z,3.24
2019-01-17T02:26:28.146Z,3.31
2019-01-17T02:27:28.134Z,3.25
2019-01-17T02:28:28.123Z,3.28
2019-01-17T02:29:28.111Z,3.31
2019-01-17T02:30:28.104Z,3.25
2019-01-17T02:31:28.097Z,3.30
2019-01-17T02:32:28.139Z,3.30
2019-01-17T02:33:28.073Z,3.20
2019-01-17T02:34:28.060Z,3.23
2019-01-17T02:35:28.049Z,3.20
2019-01-17T02:36:28.036Z,3.24
2019-01-17T02:37:28.030Z,3.31
2019-01-17T02:38:28.017Z,3.30
2019-01-17T02:39:28.014Z,3.34
2019-01-17T02:40:27.999Z,3.27
2019-01-17T02:41:27.988Z,3.33
2019-01-17T02:42:27.977Z,3.31
2019-01-17T02:43:27.962Z,3.31
2019-01-17T02:44:27.954Z,3.30
2019-01-17T02:45:27.962Z,3.24
2019-01-17T02:46:27.932Z,3.18
2019-01-17T02:47:27.924Z,3.30
2019-01-17T02:48:27.909Z,3.23
2019-01-17T02:49:27.903Z,3.23
2019-01-17T02:50:27.892Z,3.23
2019-01-17T02:51:27.884Z,3.12
2019-01-17T02:52:27.870Z,3.16
2019-01-17T02:53:27.861Z,3.12
2019-01-17T02:54:27.850Z,3.20
2019-01-17T02:55:27.843Z,3.09
2019-01-17T02:56:27.832Z,3.12
2019-01-17T02:57:27.820Z,3.02
2019-01-17T02:58:27.808Z,3.02
2019-01-17T02:59:27.795Z,2.97
2019-01-17T03:00:27.784Z,3.00
2019-01-17T03:01:27.785Z,3.09
2019-01-17T03:02:27.780Z,3.02
2019-01-17T03:03:27.756Z,3.05
2019-01-17T03:04:27.748Z,3.09
2019-01-17T03:05:27.735Z,3.05
2019-01-17T03:06:27.720Z,2.95
2019-01-17T03:07:27.713Z,2.88
2019-01-17T03:08:27.703Z,2.88
2019-01-17T03:09:27.694Z,2.91
2019-01-17T03:10:27.684Z,2.97
2019-01-17T03:11:27.672Z,2.94
2019-01-17T03:12:27.659Z,2.97
2019-01-17T03:13:27.651Z,3.00
2019-01-17T03:14:27.642Z,3.07
2019-01-17T03:15:27.630Z,3.03
2019-01-17T03:16:27.619Z,2.92
2019-01-17T03:17:27.607Z,2.95
2019-01-17T03:18:27.607Z,2.85
2019-01-17T03:19:27.586Z,2.81
2019-01-17T03:20:27.579Z,2.67
2019-01-17T03:21:27.566Z,2.70
2019-01-17T03:22:27.597Z,2.82
2019-01-17T03:23:27.582Z,2.84
2019-01-17T03:24:27.548Z,2.95
2019-01-17T03:25:27.532Z,2.88
2019-01-17T03:26:27.522Z,2.92
2019-01-17T03:27:27.503Z,3.05
2019-01-17T03:28:27.490Z,2.98
2019-01-17T03:29:27.487Z,2.98
2019-01-17T03:30:27.471Z,2.87
2019-01-17T03:31:27.464Z,2.89
2019-01-17T03:32:27.450Z,2.81
2019-01-17T03:33:27.441Z,2.71
2019-01-17T03:34:27.429Z,2.69
2019-01-17T03:35:27.416Z,2.58
2019-01-17T03:36:27.406Z,2.58
2019-01-17T03:37:27.396Z,2.70
2019-01-17T03:38:27.384Z,2.67
2019-01-17T03:39:27.376Z,2.66
2019-01-17T03:40:27.377Z,2.59
2019-01-17T03:41:27.352Z,2.58
2019-01-17T03:42:27.340Z,2.55
2019-01-17T03:43:27.330Z,2.58
2019-01-17T03:44:27.324Z,2.59
2019-01-17T03:45:27.315Z,2.59
2019-01-17T03:46:27.295Z,2.71
2019-01-17T03:47:27.288Z,2.77
2019-01-17T03:48:27.283Z,2.87
2019-01-17T03:49:27.269Z,2.95
2019-01-17T03:50:27.257Z,2.95
2019-01-17T03:51:27.246Z,2.88
2019-01-17T03:52:27.237Z,2.85
2019-01-17T03:53:27.224Z,2.97
2019-01-17T03:54:27.211Z,2.94
2019-01-17T03:55:27.203Z,2.84
2019-01-17T03:56:27.192Z,2.87
2019-01-17T03:57:27.182Z,2.89
2019-01-17T03:58:27.164Z,2.94
2019-01-17T03:59:27.151Z,3.00
2019-01-17T04:00:27.155Z,2.94
2019-01-17T04:01:27.144Z,2.97
2019-01-17T04:02:27.128Z,3.13
2019-01-17T04:03:27.116Z,3.13
2019-01-17T04:04:27.105Z,3.10
2019-01-17T04:05:27.094Z,3.05
2019-01-17T04:06:27.084Z,2.97
2019-01-17T04:07:27.072Z,2.98
2019-01-17T04:08:27.066Z,3.00
2019-01-17T04:09:27.054Z,2.97
2019-01-17T04:10:27.043Z,2.92
2019-01-17T04:11:27.031Z,3.05
2019-01-17T04:12:27.023Z,2.98
2019-01-17T04:13:27.065Z,2.98
2019-01-17T04:14:29.396Z,2.94
2019-01-17T04:15:26.988Z,2.97
2019-01-17T04:16:26.979Z,2.92
2019-01-17T04:17:26.968Z,2.85
2019-01-17T04:18:26.958Z,2.85
2019-01-17T04:19:26.946Z,2.82
2019-01-17T04:20:26.939Z,2.84
2019-01-17T04:21:26.927Z,2.84
2019-01-17T04:22:26.915Z,2.84
2019-01-17T04:23:26.904Z,2.84
2019-01-17T04:24:26.892Z,2.92
2019-01-17T04:25:26.883Z,2.87
2019-01-17T04:26:26.872Z,2.89
2019-01-17T04:27:26.865Z,2.91
2019-01-17T04:28:26.886Z,2.97
2019-01-17T04:29:26.840Z,2.94
2019-01-17T04:30:26.831Z,2.84
2019-01-17T04:31:26.818Z,2.79
2019-01-17T04:32:26.808Z,2.70
2019-01-17T04:33:26.828Z,2.74
2019-01-17T04:34:26.786Z,2.71
2019-01-17T04:35:26.774Z,2.66
2019-01-17T04:36:26.764Z,2.71
2019-01-17T04:37:26.756Z,2.59
2019-01-17T04:38:26.742Z,2.56
2019-01-17T04:39:26.738Z,2.51
2019-01-17T04:40:26.716Z,2.48
2019-01-17T04:41:26.708Z,2.53
2019-01-17T04:42:26.699Z,2.61
2019-01-17T04:43:26.692Z,2.48
2019-01-17T04:44:26.680Z,2.52
2019-01-17T04:45:26.669Z,2.45
2019-01-17T04:46:26.658Z,2.45
2019-01-17T04:47:26.650Z,2.44
2019-01-17T04:48:26.638Z,2.46
2019-01-17T04:49:26.629Z,2.40
2019-01-17T04:50:26.617Z,2.34
2019-01-17T04:51:26.607Z,2.34
2019-01-17T04:52:26.600Z,2.33
2019-01-17T04:53:26.588Z,2.31
2019-01-17T04:54:26.574Z,2.37
2019-01-17T04:55:26.564Z,2.41
2019-01-17T04:56:26.546Z,2.34
2019-01-17T04:57:26.546Z,2.31
2019-01-17T04:58:26.533Z,2.35
2019-01-17T04:59:26.520Z,2.48
2019-01-17T05:00:26.509Z,2.41
2019-01-17T05:01:26.505Z,2.49
2019-01-17T05:02:26.482Z,2.48
2019-01-17T05:03:26.477Z,2.49
2019-01-17T05:04:29.062Z,2.67
2019-01-17T05:05:26.454Z,2.71
2019-01-17T05:06:26.444Z,2.71
2019-01-17T05:07:26.432Z,2.67
2019-01-17T05:08:26.425Z,2.76
2019-01-17T05:09:26.413Z,2.66
2019-01-17T05:10:26.390Z,2.66
2019-01-17T05:11:26.390Z,2.70
2019-01-17T05:12:26.378Z,2.58
2019-01-17T05:13:26.368Z,2.52
2019-01-17T05:14:26.357Z,2.51
2019-01-17T05:15:26.350Z,2.51
2019-01-17T05:16:26.338Z,2.41
2019-01-17T05:17:26.328Z,2.41
2019-01-17T05:18:26.318Z,2.40
2019-01-17T05:19:26.303Z,2.28
2019-01-17T05:20:26.293Z,2.19
2019-01-17T05:21:26.283Z,2.19
2019-01-17T05:22:26.272Z,2.16
2019-01-17T05:23:26.263Z,2.15
2019-01-17T05:24:26.242Z,2.17
2019-01-17T05:25:26.241Z,2.02
2019-01-17T05:26:26.225Z,2.04
2019-01-17T05:27:26.219Z,1.91
2019-01-17T05:28:26.208Z,1.94
2019-01-17T05:29:26.209Z,1.85
2019-01-17T05:30:26.186Z,1.75
2019-01-17T05:31:26.173Z,1.78
2019-01-17T05:32:26.165Z,1.78
2019-01-17T05:33:26.148Z,1.75
2019-01-17T05:34:26.143Z,1.62
2019-01-17T05:35:26.119Z,1.60
2019-01-17T05:36:26.141Z,1.55
2019-01-17T05:37:26.108Z,1.60
2019-01-17T05:38:26.101Z,1.58
2019-01-17T05:39:26.086Z,1.51
2019-01-17T05:40:26.075Z,1.57
2019-01-17T05:41:26.064Z,1.57
2019-01-17T05:42:26.051Z,1.50
2019-01-17T05:43:26.041Z,1.51
2019-01-17T05:44:26.030Z,1.52
2019-01-17T05:45:26.019Z,1.42
2019-01-17T05:46:26.007Z,1.46
2019-01-17T05:47:25.999Z,1.52
2019-01-17T05:48:25.984Z,1.55
2019-01-17T05:49:25.978Z,1.52
2019-01-17T05:50:25.965Z,1.61
2019-01-17T05:51:25.952Z,1.72
2019-01-17T05:52:25.933Z,1.76
2019-01-17T05:53:25.921Z,1.89
2019-01-17T05:54:28.270Z,1.91
2019-01-17T05:55:25.908Z,1.97
2019-01-17T05:56:25.896Z,2.01
2019-01-17T05:57:25.889Z,2.13
2019-01-17T05:58:25.873Z,2.19
2019-01-17T05:59:25.862Z,2.16
2019-01-17T06:00:25.852Z,2.27
2019-01-17T06:01:25.842Z,2.33
2019-01-17T06:02:25.830Z,2.33
2019-01-17T06:03:25.823Z,2.30
2019-01-17T06:04:25.808Z,2.30
2019-01-17T06:05:25.802Z,2.35
2019-01-17T06:06:25.787Z,2.27
2019-01-17T06:07:25.776Z,2.26
2019-01-17T06:08:25.763Z,2.17
2019-01-17T06:09:25.753Z,2.17
2019-01-17T06:10:25.730Z,2.01
2019-01-17T06:11:25.733Z,1.93
2019-01-17T06:12:25.729Z,1.94
2019-01-17T06:13:25.710Z,1.97
2019-01-17T06:14:25.696Z,1.93
2019-01-17T06:15:25.684Z,1.98
2019-01-17T06:16:25.673Z,1.93
2019-01-17T06:17:25.666Z,1.99
2019-01-17T06:18:25.652Z,2.04
2019-01-17T06:19:25.645Z,2.12
2019-01-17T06:20:25.631Z,2.08
2019-01-17T06:21:25.620Z,2.16
2019-01-17T06:22:25.609Z,2.15
2019-01-17T06:23:25.599Z,2.16
2019-01-17T06:24:25.587Z,2.19
2019-01-17T06:25:28.149Z,2.20
2019-01-17T06:26:25.564Z,2.15
2019-01-17T06:27:25.564Z,2.17
2019-01-17T06:28:25.555Z,2.15
2019-01-17T06:29:25.555Z,2.16
2019-01-17T06:30:25.527Z,2.23
2019-01-17T06:31:25.503Z,2.16
2019-01-17T06:32:25.501Z,2.19
2019-01-17T06:33:25.489Z,2.13
2019-01-17T06:34:25.509Z,2.22
2019-01-17T06:35:25.466Z,2.20
2019-01-17T06:36:25.457Z,2.20
2019-01-17T06:37:25.447Z,2.17
2019-01-17T06:38:25.436Z,2.22
2019-01-17T06:39:25.423Z,2.35
2019-01-17T06:40:25.416Z,2.40
2019-01-17T06:41:25.403Z,2.56
2019-01-17T06:42:25.388Z,2.52
2019-01-17T06:43:25.378Z,2.64
2019-01-17T06:44:25.368Z,2.70
2019-01-17T06:45:25.361Z,2.88
2019-01-17T06:46:25.352Z,3.00
2019-01-17T06:47:25.335Z,2.95
2019-01-17T06:48:25.325Z,3.10
2019-01-17T06:49:25.303Z,3.12
2019-01-17T06:50:25.302Z,3.10
2019-01-17T06:51:25.293Z,3.16
2019-01-17T06:52:25.284Z,3.10
2019-01-17T06:53:25.273Z,3.07
2019-01-17T06:54:25.258Z,3.13
2019-01-17T06:55:25.250Z,3.21
2019-01-17T06:56:25.238Z,3.12
2019-01-17T06:57:25.229Z,3.24
2019-01-17T06:58:25.218Z,3.30
2019-01-17T06:59:25.209Z,3.30
2019-01-17T07:00:25.200Z,3.36
2019-01-17T07:01:25.190Z,3.33
2019-01-17T07:02:25.182Z,3.40
2019-01-17T07:03:25.168Z,3.30
2019-01-17T07:04:25.158Z,3.39
2019-01-17T07:05:25.148Z,3.44
2019-01-17T07:06:25.772Z,3.39
2019-01-17T07:07:25.130Z,3.50
2019-01-17T07:08:25.112Z,3.60
2019-01-17T07:09:25.105Z,3.80
2019-01-17T07:10:25.091Z,4.03
2019-01-17T07:11:25.076Z,4.18
2019-01-17T07:12:25.081Z,4.28
2019-01-17T07:13:25.055Z,4.34
2019-01-17T07:14:25.050Z,4.40
2019-01-17T07:15:25.043Z,4.44
2019-01-17T07:16:25.036Z,4.73
2019-01-17T07:17:25.057Z,4.76
2019-01-17T07:18:25.011Z,4.91
2019-01-17T07:19:25.001Z,5.01
2019-01-17T07:20:24.993Z,5.14
2019-01-17T07:21:24.984Z,5.23
2019-01-17T07:22:24.975Z,5.28
2019-01-17T07:23:24.964Z,5.28
2019-01-17T07:24:24.956Z,5.17
2019-01-17T07:25:24.937Z,5.19
2019-01-17T07:26:24.955Z,5.16
2019-01-17T07:27:24.927Z,5.16
2019-01-17T07:28:24.921Z,5.13
2019-01-17T07:29:24.908Z,5.38
2019-01-17T07:30:24.902Z,5.35
2019-01-17T07:31:24.890Z,5.31
2019-01-17T07:32:24.880Z,5.25
2019-01-17T07:33:24.874Z,5.34
2019-01-17T07:34:24.861Z,5.25
2019-01-17T07:35:24.853Z,5.40
2019-01-17T07:36:24.847Z,5.46
2019-01-17T07:37:24.839Z,5.64
2019-01-17T07:38:24.827Z,5.64
2019-01-17T07:39:24.820Z,5.67
2019-01-17T07:40:24.812Z,5.64
2019-01-17T07:41:24.803Z,5.66
2019-01-17T07:42:24.795Z,5.63
2019-01-17T07:43:24.788Z,5.73
2019-01-17T07:44:24.780Z,5.68
2019-01-17T07:45:24.771Z,5.66
2019-01-17T07:46:24.760Z,5.66
2019-01-17T07:47:24.762Z,5.67
2019-01-17T07:48:24.745Z,5.60
2019-01-17T07:49:24.737Z,5.66
2019-01-17T07:50:24.730Z,5.66
2019-01-17T07:51:24.721Z,5.59
2019-01-17T07:52:24.712Z,5.50
2019-01-17T07:53:24.709Z,5.55
2019-01-17T07:54:24.699Z,5.53
2019-01-17T07:55:24.690Z,5.59
2019-01-17T07:56:24.683Z,5.49
2019-01-17T07:57:24.675Z,5.53
2019-01-17T07:58:24.667Z,5.49
2019-01-17T07:59:24.659Z,5.45
2019-01-17T08:00:24.655Z,5.41
2019-01-17T08:01:24.641Z,5.48
2019-01-17T08:02:24.634Z,5.38
2019-01-17T08:03:24.626Z,5.31
2019-01-17T08:04:24.623Z,5.38
2019-01-17T08:05:24.611Z,5.27
2019-01-17T08:06:24.602Z,5.23
2019-01-17T08:07:24.584Z,5.28
2019-01-17T08:08:24.589Z,5.25
2019-01-17T08:09:24.575Z,5.28
2019-01-17T08:10:24.569Z,5.38
2019-01-17T08:11:24.562Z,5.35
2019-01-17T08:12:24.551Z,5.23
2019-01-17T08:13:24.546Z,5.27
2019-01-17T08:14:24.547Z,5.25
2019-01-17T08:15:24.530Z,5.35
2019-01-17T08:16:24.521Z,5.37
2019-01-17T08:17:24.514Z,5.49
2019-01-17T08:18:24.507Z,5.46
2019-01-17T08:19:24.494Z,5.46
2019-01-17T08:20:24.510Z,5.43
2019-01-17T08:21:24.494Z,5.38
2019-01-17T08:22:24.474Z,5.38
2019-01-17T08:23:24.469Z,5.38
2019-01-17T08:24:24.460Z,5.48
2019-01-17T08:25:24.453Z,5.41
2019-01-17T08:26:24.438Z,5.48
2019-01-17T08:27:24.437Z,5.46
2019-01-17T08:28:24.431Z,5.48
2019-01-17T08:29:24.420Z,5.45
2019-01-17T08:30:24.416Z,5.46
2019-01-17T08:31:24.404Z,5.38
2019-01-17T08:32:24.396Z,5.35
2019-01-17T08:33:24.385Z,5.46
2019-01-17T08:34:28.298Z,5.38
2019-01-17T08:35:24.373Z,5.38
2019-01-17T08:36:24.366Z,5.38
2019-01-17T08:37:24.358Z,5.31
2019-01-17T08:38:24.352Z,5.34
2019-01-17T08:39:24.343Z,5.43
2019-01-17T08:40:24.336Z,5.41
2019-01-17T08:41:24.325Z,5.41
2019-01-17T08:42:24.319Z,5.49
2019-01-17T08:43:24.311Z,5.45
2019-01-17T08:44:24.303Z,5.38
2019-01-17T08:45:24.306Z,5.40
2019-01-17T08:46:24.291Z,5.31
2019-01-17T08:47:24.282Z,5.35
2019-01-17T08:48:24.269Z,5.38
2019-01-17T08:49:24.265Z,5.46
2019-01-17T08:50:24.260Z,5.45
2019-01-17T08:51:24.257Z,5.41
2019-01-17T08:52:24.249Z,5.40
2019-01-17T08:53:24.246Z,5.38
2019-01-17T08:54:24.224Z,5.45
2019-01-17T08:55:24.228Z,5.43
2019-01-17T08:56:24.212Z,5.48
2019-01-17T08:57:24.203Z,5.46
2019-01-17T08:58:24.204Z,5.56
2019-01-17T08:59:24.189Z,5.49
2019-01-17T09:00:24.181Z,5.48
2019-01-17T09:01:24.173Z,5.46
2019-01-17T09:02:24.168Z,5.45
2019-01-17T09:03:24.159Z,5.45
2019-01-17T09:04:24.153Z,5.41
2019-01-17T09:05:24.146Z,5.45
2019-01-17T09:06:24.137Z,5.45
2019-01-17T09:07:24.128Z,5.52
2019-01-17T09:08:24.118Z,5.40
2019-01-17T09:09:24.116Z,5.56
2019-01-17T09:10:24.105Z,5.45
2019-01-17T09:11:24.102Z,5.46
2019-01-17T09:12:24.091Z,5.48
2019-01-17T09:13:24.082Z,5.50
2019-01-17T09:14:24.077Z,5.49
2019-01-17T09:15:24.061Z,5.53
2019-01-17T09:16:26.555Z,5.64
2019-01-17T09:17:24.053Z,5.60
2019-01-17T09:18:24.045Z,5.67
2019-01-17T09:19:24.039Z,5.60
2019-01-17T09:20:24.032Z,5.68
2019-01-17T09:21:24.064Z,5.59
2019-01-17T09:22:24.018Z,5.60
2019-01-17T09:23:24.008Z,5.67
2019-01-17T09:24:24.002Z,5.60
2019-01-17T09:25:23.995Z,5.55
2019-01-17T09:26:23.980Z,5.53
2019-01-17T09:27:23.980Z,5.53
2019-01-17T09:28:23.968Z,5.63
2019-01-17T09:29:23.973Z,5.55
2019-01-17T09:30:23.958Z,5.43
2019-01-17T09:31:23.950Z,5.48
2019-01-17T09:32:23.986Z,5.52
2019-01-17T09:33:23.934Z,5.45
2019-01-17T09:34:23.929Z,5.48
2019-01-17T09:35:23.924Z,5.49
2019-01-17T09:36:23.915Z,5.45
2019-01-17T09:37:23.905Z,5.50
2019-01-17T09:38:23.893Z,5.43
2019-01-17T09:39:23.891Z,5.46
2019-01-17T09:40:23.885Z,5.55
2019-01-17T09:41:23.893Z,5.50
2019-01-17T09:42:23.877Z,5.46
2019-01-17T09:43:23.854Z,5.43
2019-01-17T09:44:23.859Z,5.45
2019-01-17T09:45:23.930Z,5.45
2019-01-17T09:46:23.878Z,5.50
2019-01-17T09:47:23.831Z,5.55
2019-01-17T09:48:23.823Z,5.64
2019-01-17T09:49:23.815Z,5.67
2019-01-17T09:50:23.809Z,5.68
2019-01-17T09:51:23.801Z,5.70
2019-01-17T09:52:23.797Z,5.81
2019-01-17T09:53:23.827Z,5.92
2019-01-17T09:54:23.781Z,6.06
2019-01-17T09:55:23.767Z,6.09
2019-01-17T09:56:23.763Z,6.11
2019-01-17T09:57:23.755Z,6.09
2019-01-17T09:58:23.751Z,5.98
2019-01-17T09:59:23.745Z,6.04
2019-01-17T10:00:23.740Z,5.93
2019-01-17T10:01:23.726Z,6.10
2019-01-17T10:02:23.721Z,5.96
2019-01-17T10:03:23.717Z,5.92
2019-01-17T10:04:26.541Z,5.83
2019-01-17T10:05:23.698Z,5.85
2019-01-17T10:06:23.694Z,5.82
2019-01-17T10:07:23.686Z,5.81
2019-01-17T10:08:23.679Z,5.78
2019-01-17T10:09:23.672Z,5.75
2019-01-17T10:10:24.038Z,5.88
2019-01-17T10:11:23.658Z,5.83
2019-01-17T10:12:23.652Z,5.81
2019-01-17T10:13:23.644Z,5.85
2019-01-17T10:14:23.637Z,5.70
2019-01-17T10:15:23.700Z,5.85
2019-01-17T10:16:23.629Z,5.86
2019-01-17T10:17:23.612Z,5.95
2019-01-17T10:18:23.608Z,5.95
2019-01-17T10:19:23.601Z,5.93
2019-01-17T10:20:23.588Z,5.95
2019-01-17T10:21:23.586Z,5.85
2019-01-17T10:22:23.580Z,5.74
2019-01-17T10:23:23.576Z,5.85
2019-01-17T10:24:23.568Z,5.82
2019-01-17T10:25:23.556Z,5.86
2019-01-17T10:26:23.553Z,5.74
2019-01-17T10:27:23.543Z,5.82
2019-01-17T10:28:23.565Z,5.88
2019-01-17T10:29:23.530Z,5.86
2019-01-17T10:30:23.524Z,5.91
2019-01-17T10:31:23.518Z,5.82
2019-01-17T10:32:23.510Z,5.82
2019-01-17T10:33:23.502Z,5.83
2019-01-17T10:34:23.492Z,5.82
2019-01-17T10:35:23.487Z,5.92
2019-01-17T10:36:23.480Z,5.81
2019-01-17T10:37:23.474Z,5.81
2019-01-17T10:38:23.468Z,5.71
2019-01-17T10:39:23.460Z,5.81
2019-01-17T10:40:23.455Z,5.81
2019-01-17T10:41:23.441Z,5.75
2019-01-17T10:42:23.435Z,5.74
2019-01-17T10:43:23.440Z,5.71
2019-01-17T10:44:23.433Z,5.71
2019-01-17T10:45:23.410Z,5.70
2019-01-17T10:46:23.449Z,5.70
2019-01-17T10:47:23.401Z,5.66
2019-01-17T10:48:23.392Z,5.68
2019-01-17T10:49:23.385Z,5.68
2019-01-17T10:50:23.380Z,5.71
2019-01-17T10:51:23.374Z,5.71
2019-01-17T10:52:23.365Z,5.71
2019-01-17T10:53:23.349Z,5.70
2019-01-17T10:54:23.344Z,5.70
2019-01-17T10:55:23.339Z,5.71
2019-01-17T10:56:27.772Z,5.68
2019-01-17T10:57:23.367Z,5.74
2019-01-17T10:58:23.318Z,5.70
2019-01-17T10:59:23.313Z,5.77
2019-01-17T11:00:23.305Z,5.81
2019-01-17T11:01:23.296Z,5.78
2019-01-17T11:02:23.296Z,5.73
2019-01-17T11:03:23.287Z,5.71
2019-01-17T11:04:23.274Z,5.74
2019-01-17T11:05:23.268Z,5.88
2019-01-17T11:06:23.262Z,5.93
2019-01-17T11:07:23.258Z,5.86
2019-01-17T11:08:23.247Z,5.92
2019-01-17T11:09:23.236Z,5.92
2019-01-17T11:10:23.234Z,5.96
2019-01-17T11:11:23.225Z,5.95
2019-01-17T11:12:23.217Z,5.91
2019-01-17T11:13:23.213Z,5.96
2019-01-17T11:14:23.203Z,5.74
2019-01-17T11:15:23.202Z,5.67
2019-01-17T11:16:23.189Z,5.77
2019-01-17T11:17:23.183Z,5.56
2019-01-17T11:18:23.171Z,5.55
2019-01-17T11:19:23.168Z,5.60
2019-01-17T11:20:23.162Z,5.49
2019-01-17T11:21:23.154Z,5.41
2019-01-17T11:22:23.150Z,5.45
2019-01-17T11:23:23.136Z,5.48
2019-01-17T11:24:23.136Z,5.41
2019-01-17T11:25:23.121Z,5.38
2019-01-17T11:26:23.119Z,5.34
2019-01-17T11:27:23.108Z,5.34
2019-01-17T11:28:23.106Z,5.25
2019-01-17T11:29:23.092Z,5.25
2019-01-17T11:30:23.088Z,5.27
2019-01-17T11:31:23.081Z,5.17
2019-01-17T11:32:23.074Z,5.20
2019-01-17T11:33:23.067Z,5.13
2019-01-17T11:34:23.056Z,5.10
2019-01-17T11:35:23.051Z,4.95
2019-01-17T11:36:23.052Z,4.98
2019-01-17T11:37:23.037Z,4.95
2019-01-17T11:38:23.025Z,4.95
2019-01-17T11:39:23.023Z,4.91
2019-01-17T11:40:23.015Z,4.88
2019-01-17T11:41:23.005Z,4.84
2019-01-17T11:42:22.997Z,4.92
2019-01-17T11:43:22.988Z,4.84
2019-01-17T11:44:22.980Z,4.99
2019-01-17T11:45:22.974Z,4.94
2019-01-17T11:46:22.963Z,4.98
2019-01-17T11:47:22.993Z,4.92
2019-01-17T11:48:24.882Z,4.94
2019-01-17T11:49:22.941Z,4.99
2019-01-17T11:50:22.934Z,4.96
2019-01-17T11:51:22.929Z,4.94
2019-01-17T11:52:22.919Z,4.95
2019-01-17T11:53:22.912Z,4.79
2019-01-17T11:54:22.902Z,4.80
2019-01-17T11:55:22.895Z,4.83
2019-01-17T11:56:22.887Z,4.89
2019-01-17T11:57:22.883Z,4.98
2019-01-17T11:58:22.876Z,4.84
2019-01-17T11:59:22.864Z,4.79
2019-01-17T12:00:22.859Z,4.84
2019-01-17T12:01:22.848Z,4.79
2019-01-17T12:02:22.840Z,4.84
2019-01-17T12:03:22.839Z,4.94
2019-01-17T12:04:22.825Z,4.84
2019-01-17T12:05:22.820Z,4.94
2019-01-17T12:06:22.808Z,4.95
2019-01-17T12:07:22.803Z,5.02
2019-01-17T12:08:22.799Z,4.94
2019-01-17T12:09:22.789Z,4.96
2019-01-17T12:10:22.769Z,4.98
2019-01-17T12:11:22.773Z,4.99
2019-01-17T12:12:22.767Z,4.99
2019-01-17T12:13:22.755Z,5.02
2019-01-17T12:14:24.124Z,5.10
2019-01-17T12:15:22.741Z,4.95
2019-01-17T12:16:22.732Z,5.05
2019-01-17T12:17:22.728Z,5.04
2019-01-17T12:18:22.724Z,4.96
2019-01-17T12:19:22.708Z,5.04
2019-01-17T12:20:22.703Z,4.96
2019-01-17T12:21:22.698Z,4.94
2019-01-17T12:22:22.685Z,4.96
2019-01-17T12:23:22.678Z,5.01
2019-01-17T12:24:22.672Z,4.92
2019-01-17T12:25:22.665Z,4.96
2019-01-17T12:26:22.655Z,5.10
2019-01-17T12:27:22.649Z,5.04
2019-01-17T12:28:22.641Z,5.12
2019-01-17T12:29:22.632Z,5.13
2019-01-17T12:30:22.625Z,5.16
2019-01-17T12:31:22.619Z,5.07
2019-01-17T12:32:22.639Z,5.09
2019-01-17T12:33:22.603Z,5.07
2019-01-17T12:34:22.597Z,5.01
2019-01-17T12:35:22.589Z,5.10
2019-01-17T12:36:22.571Z,4.95
2019-01-17T12:37:22.575Z,5.04
2019-01-17T12:38:25.374Z,5.04
2019-01-17T12:39:22.559Z,5.17
2019-01-17T12:40:22.552Z,5.17
2019-01-17T12:41:22.545Z,5.10
2019-01-17T12:42:22.536Z,5.07
2019-01-17T12:43:22.530Z,5.16
2019-01-17T12:44:22.532Z,5.12
2019-01-17T12:45:22.515Z,5.16
2019-01-17T12:46:22.507Z,5.13
2019-01-17T12:47:22.503Z,5.19
2019-01-17T12:48:22.494Z,5.30
2019-01-17T12:49:22.486Z,5.31
2019-01-17T12:50:22.479Z,5.31
2019-01-17T12:51:22.472Z,5.50
2019-01-17T12:52:22.471Z,5.38
2019-01-17T12:53:22.458Z,5.37
2019-01-17T12:54:22.456Z,5.32
2019-01-17T12:55:22.442Z,5.25
2019-01-17T12:56:22.436Z,5.37
2019-01-17T12:57:22.429Z,5.45
2019-01-17T12:58:22.423Z,5.37
2019-01-17T12:59:22.418Z,5.40
2019-01-17T13:00:22.409Z,5.34
2019-01-17T13:01:22.402Z,5.43
2019-01-17T13:02:22.394Z,5.38
2019-01-17T13:03:22.381Z,5.45
2019-01-17T13:04:22.384Z,5.46
2019-01-17T13:05:22.375Z,5.41
2019-01-17T13:06:22.366Z,5.35
2019-01-17T13:07:22.360Z,5.43
2019-01-17T13:08:22.357Z,5.48
2019-01-17T13:09:22.353Z,5.43
2019-01-17T13:10:22.338Z,5.53
2019-01-17T13:11:22.334Z,5.55
2019-01-17T13:12:22.325Z,5.56
2019-01-17T13:13:22.321Z,5.43
2019-01-17T13:14:22.314Z,5.50
2019-01-17T13:15:22.305Z,5.49
2019-01-17T13:16:22.300Z,5.45
2019-01-17T13:17:22.293Z,5.35
2019-01-17T13:18:22.287Z,5.23